Time;durP1;ratioP1;P1;durP2;ratioP2;P2;SDS_P1;SDS_P2;PMS_P1;PMS_P2;Temp;Humidity;BMP_temperature;BMP_pressure;BME280_temperature;BME280_humidity;BME280_pressure;Samples;Min_cycle;Max_cycle;Signal;HPM_P1;HPM_P2
2021/12/14 00:00:47;;;;;;;18.57;9.23;;;5.70;99.90;;;;;;8341744;28;20189;-65
2021/12/14 00:04:48;;;;;;;19.63;9.37;;;5.70;99.90;;;;;;8323031;28;20187;-66
2021/12/14 00:08:58;;;;;;;17.00;9.00;;;5.70;99.90;;;;;;8311440;28;20224;-65
2021/12/14 00:13:12;;;;;;;14.73;8.10;;;5.70;99.90;;;;;;8318553;28;20190;-65
2021/12/14 00:17:23;;;;;;;15.73;7.43;;;5.70;99.90;;;;;;8321717;28;20234;-64
2021/12/14 00:21:30;;;;;;;12.73;6.83;;;5.80;99.90;;;;;;8314470;28;20194;-65
2021/12/14 00:25:51;;;;;;;11.27;6.90;;;5.80;99.90;;;;;;8327198;28;20218;-67
2021/12/14 00:29:55;;;;;;;12.03;6.23;;;5.80;99.90;;;;;;8323729;28;20205;-65
2021/12/14 00:34:01;;;;;;;9.63;5.83;;;5.80;99.90;;;;;;8320662;28;20218;-64
2021/12/14 00:38:02;;;;;;;8.80;6.00;;;5.90;99.90;;;;;;8321490;28;20187;-64
2021/12/14 00:42:04;;;;;;;8.83;5.53;;;5.90;99.90;;;;;;8306823;28;20244;-64
2021/12/14 00:46:05;;;;;;;9.63;5.20;;;5.90;99.90;;;;;;8321049;28;20210;-64
2021/12/14 00:50:08;;;;;;;11.00;6.13;;;5.90;99.90;;;;;;8326233;28;20290;-64
2021/12/14 00:54:12;;;;;;;9.27;5.50;;;6.00;99.90;;;;;;8325086;28;20213;-65
2021/12/14 00:58:14;;;;;;;5.97;4.30;;;6.00;99.90;;;;;;8314428;28;20196;-66
2021/12/14 01:02:21;;;;;;;6.63;4.63;;;6.00;99.90;;;;;;8315483;28;20187;-64
2021/12/14 01:06:25;;;;;;;6.00;4.40;;;6.00;99.90;;;;;;8314219;28;20246;-64
2021/12/14 01:10:34;;;;;;;7.43;4.53;;;6.10;99.90;;;;;;8329355;28;20242;-64
2021/12/14 01:14:48;;;;;;;6.37;4.47;;;6.10;99.90;;;;;;8319521;28;20191;-64
2021/12/14 01:19:02;;;;;;;7.83;4.57;;;6.20;99.90;;;;;;8311606;28;20200;-64
2021/12/14 01:23:14;;;;;;;7.27;4.60;;;6.20;99.90;;;;;;8304477;28;20238;-64
2021/12/14 01:27:19;;;;;;;7.93;5.10;;;6.30;99.90;;;;;;8313494;28;20209;-65
2021/12/14 01:31:32;;;;;;;7.20;5.13;;;6.30;99.90;;;;;;8328051;28;20209;-65
2021/12/14 01:35:37;;;;;;;5.40;3.67;;;6.30;99.90;;;;;;8316155;28;20213;-65
2021/12/14 01:44:05;;;;;;;8.73;4.77;;;6.20;99.90;;;;;;8322690;28;20248;-66
2021/12/14 01:48:06;;;;;;;9.00;4.97;;;6.30;99.90;;;;;;8303824;28;20188;-65
2021/12/14 01:52:13;;;;;;;13.17;5.40;;;6.30;99.90;;;;;;8307563;28;20186;-65
2021/12/14 01:56:19;;;;;;;11.07;4.80;;;6.30;99.90;;;;;;8305853;28;20274;-67
2021/12/14 02:00:26;;;;;;;10.47;5.03;;;6.30;99.90;;;;;;8332397;28;20354;-65
2021/12/14 02:04:28;;;;;;;14.03;6.10;;;6.30;99.90;;;;;;8332602;28;20193;-64
2021/12/14 02:08:32;;;;;;;13.17;5.67;;;6.30;99.90;;;;;;8331223;28;20241;-65
2021/12/14 02:12:33;;;;;;;10.73;5.13;;;6.30;99.90;;;;;;8314820;28;20294;-65
2021/12/14 02:16:36;;;;;;;11.87;5.83;;;6.30;99.90;;;;;;8334875;28;20182;-65
2021/12/14 02:20:38;;;;;;;9.03;4.73;;;6.30;99.90;;;;;;8314581;28;20190;-65
2021/12/14 02:24:42;;;;;;;10.93;5.40;;;6.30;99.90;;;;;;8329208;28;20213;-65
2021/12/14 02:28:44;;;;;;;9.43;5.70;;;6.30;99.90;;;;;;8310665;28;20237;-66
2021/12/14 02:32:45;;;;;;;8.40;5.60;;;6.30;99.90;;;;;;8323510;28;20190;-67
2021/12/14 02:36:49;;;;;;;10.57;6.60;;;6.40;99.90;;;;;;8315442;28;20190;-65
2021/12/14 02:40:57;;;;;;;7.83;5.07;;;6.40;99.90;;;;;;8307306;28;20194;-65
2021/12/14 02:45:00;;;;;;;8.73;4.90;;;6.40;99.90;;;;;;8331487;28;20201;-68
2021/12/14 02:49:06;;;;;;;12.30;6.70;;;6.40;99.90;;;;;;8307606;28;20348;-66
2021/12/14 02:53:09;;;;;;;13.83;6.77;;;6.40;99.90;;;;;;8311148;28;20212;-66
2021/12/14 02:57:15;;;;;;;13.07;6.53;;;6.40;99.90;;;;;;8330301;28;20182;-67
2021/12/14 03:01:17;;;;;;;17.00;8.33;;;6.40;99.90;;;;;;8314215;28;20195;-66
2021/12/14 03:05:26;;;;;;;17.33;8.57;;;6.40;99.90;;;;;;8336875;28;20190;-65
2021/12/14 03:13:35;;;;;;;17.17;8.07;;;6.40;99.90;;;;;;8321848;28;20210;-66
2021/12/14 03:17:37;;;;;;;14.97;8.33;;;6.40;99.90;;;;;;8330233;28;20212;-66
2021/12/14 03:21:45;;;;;;;20.23;8.63;;;6.40;99.90;;;;;;8327731;28;20194;-65
2021/12/14 03:25:49;;;;;;;15.73;7.60;;;6.40;99.90;;;;;;8316821;28;20190;-65
2021/12/14 03:29:50;;;;;;;19.17;9.17;;;6.40;99.90;;;;;;8303946;28;20211;-67
2021/12/14 03:34:09;;;;;;;21.23;10.77;;;6.50;99.90;;;;;;8330726;28;21769;-67
2021/12/14 03:38:21;;;;;;;25.07;12.47;;;6.50;99.90;;;;;;8340467;28;20186;-66
2021/12/14 03:42:36;;;;;;;22.60;10.93;;;6.50;99.90;;;;;;8326531;28;20186;-67
2021/12/14 03:46:51;;;;;;;25.30;10.57;;;6.50;99.90;;;;;;8320622;28;20193;-65
2021/12/14 03:50:53;;;;;;;27.47;11.70;;;6.50;99.90;;;;;;8303560;28;20213;-66
2021/12/14 03:54:56;;;;;;;28.07;12.33;;;6.50;99.90;;;;;;8324812;28;20190;-66
2021/12/14 03:58:57;;;;;;;27.10;12.60;;;6.50;99.90;;;;;;8319947;28;20313;-67
2021/12/14 04:03:04;;;;;;;24.93;11.50;;;6.50;99.90;;;;;;8306693;28;20190;-65
2021/12/14 04:07:09;;;;;;;20.90;11.07;;;6.50;99.90;;;;;;8309172;28;20190;-65
2021/12/14 04:11:11;;;;;;;23.93;12.53;;;6.50;99.90;;;;;;8322895;28;20210;-65
2021/12/14 04:15:12;;;;;;;19.73;11.43;;;6.50;99.90;;;;;;8313429;28;20254;-66
2021/12/14 04:19:21;;;;;;;22.93;12.00;;;6.50;99.90;;;;;;8306266;28;20200;-65
2021/12/14 04:23:28;;;;;;;24.17;11.03;;;6.50;99.90;;;;;;8299191;28;20206;-65
2021/12/14 04:27:31;;;;;;;20.63;10.27;;;6.50;99.90;;;;;;8323759;28;20190;-66
2021/12/14 04:31:36;;;;;;;24.47;11.33;;;6.50;99.90;;;;;;8305916;28;20205;-67
2021/12/14 04:35:39;;;;;;;23.30;12.97;;;6.50;99.90;;;;;;8306243;28;20213;-66
2021/12/14 04:39:55;;;;;;;23.23;12.53;;;6.40;99.90;;;;;;8323855;28;20182;-65
2021/12/14 04:52:43;;;;;;;24.77;12.17;;;6.40;99.90;;;;;;8331576;28;20319;-64
2021/12/14 04:56:46;;;;;;;22.17;12.03;;;6.40;99.90;;;;;;8327218;28;20186;-66
2021/12/14 05:00:49;;;;;;;27.07;13.23;;;6.40;99.90;;;;;;8332820;28;20179;-66
2021/12/14 05:04:52;;;;;;;24.53;12.10;;;6.40;99.90;;;;;;8319327;28;20191;-66
2021/12/14 05:09:29;;;;;;;24.30;12.63;;;6.40;99.90;;;;;;8313351;28;20206;-65
2021/12/14 05:13:52;;;;;;;22.50;13.37;;;6.40;99.90;;;;;;8308258;28;20183;-65
2021/12/14 05:17:53;;;;;;;24.50;14.17;;;6.40;99.90;;;;;;8331918;28;20197;-64
2021/12/14 05:21:59;;;;;;;25.87;12.60;;;6.40;99.90;;;;;;8314962;28;20187;-64
2021/12/14 05:26:03;;;;;;;22.10;11.37;;;6.30;99.90;;;;;;8319115;28;20194;-65
2021/12/14 05:30:17;;;;;;;16.47;9.97;;;6.30;99.90;;;;;;8312169;28;20314;-67
2021/12/14 05:34:21;;;;;;;17.40;10.47;;;6.30;99.90;;;;;;8325284;28;20183;-64
2021/12/14 05:38:39;;;;;;;16.33;9.90;;;6.20;99.90;;;;;;8330030;28;20186;-66
2021/12/14 05:47:03;;;;;;;23.10;15.97;;;5.90;99.90;;;;;;8324842;28;20193;-65
2021/12/14 05:51:08;;;;;;;19.63;11.47;;;5.90;99.90;;;;;;8323742;28;20203;-65
2021/12/14 05:55:10;;;;;;;17.90;11.33;;;5.90;99.90;;;;;;8304987;28;20197;-65
2021/12/14 05:59:10;;;;;;;18.10;11.03;;;5.90;99.90;;;;;;8307774;28;20179;-67
2021/12/14 06:03:29;;;;;;;21.77;12.23;;;5.90;99.90;;;;;;8323015;28;20214;-65
2021/12/14 06:07:30;;;;;;;18.17;10.93;;;6.00;99.90;;;;;;8303472;28;20221;-65
2021/12/14 06:11:31;;;;;;;19.77;13.30;;;6.00;99.90;;;;;;8331916;28;20373;-67
2021/12/14 06:15:32;;;;;;;19.37;13.43;;;6.00;99.90;;;;;;8307750;28;20242;-65
2021/12/14 06:19:39;;;;;;;18.50;12.90;;;6.10;99.90;;;;;;8309271;28;20194;-65
2021/12/14 06:23:40;;;;;;;18.27;10.67;;;6.10;99.90;;;;;;8319458;28;20226;-64
2021/12/14 06:27:43;;;;;;;20.67;11.27;;;6.10;99.90;;;;;;8314168;28;20275;-64
2021/12/14 06:31:44;;;;;;;18.10;10.87;;;6.10;99.90;;;;;;8333960;28;20217;-66
2021/12/14 06:35:50;;;;;;;18.03;11.17;;;6.10;99.90;;;;;;8328562;28;20185;-65
2021/12/14 06:39:59;;;;;;;16.13;10.47;;;6.10;99.90;;;;;;8305115;28;20193;-66
2021/12/14 06:44:00;;;;;;;18.40;11.97;;;6.10;99.90;;;;;;8321015;28;20202;-64
2021/12/14 06:48:16;;;;;;;19.70;11.83;;;6.20;99.90;;;;;;8302118;28;20193;-64
2021/12/14 06:52:16;;;;;;;19.30;13.07;;;6.20;99.90;;;;;;8299312;28;20218;-64
2021/12/14 06:56:22;;;;;;;19.23;12.43;;;6.20;99.90;;;;;;8312486;28;20186;-68
2021/12/14 07:00:25;;;;;;;19.37;11.33;;;6.20;99.90;;;;;;8305472;28;20209;-66
2021/12/14 07:04:30;;;;;;;14.37;10.73;;;6.30;99.90;;;;;;8302821;28;20205;-66
2021/12/14 07:08:31;;;;;;;18.13;10.33;;;6.40;99.90;;;;;;8299082;28;20256;-67
2021/12/14 07:12:34;;;;;;;17.43;11.43;;;6.40;99.90;;;;;;8313276;28;20218;-67
2021/12/14 07:16:38;;;;;;;17.70;11.50;;;6.40;99.90;;;;;;8298362;28;20190;-67
2021/12/14 07:20:46;;;;;;;16.77;12.03;;;6.40;99.90;;;;;;8301110;28;20200;-66
2021/12/14 07:25:03;;;;;;;19.23;13.83;;;6.40;99.90;;;;;;8304502;28;20300;-66
2021/12/14 07:29:03;;;;;;;18.63;11.97;;;6.40;99.90;;;;;;8304236;28;20221;-66
2021/12/14 07:33:16;;;;;;;16.80;11.10;;;6.40;99.90;;;;;;8321071;28;20190;-66
2021/12/14 07:37:17;;;;;;;24.27;12.73;;;6.40;99.90;;;;;;8301078;28;20194;-67
2021/12/14 07:41:52;;;;;;;18.13;12.30;;;6.40;99.90;;;;;;8311048;28;20486;-66
2021/12/14 07:45:54;;;;;;;18.53;12.20;;;6.40;99.90;;;;;;8254125;28;20317;-67
2021/12/14 07:49:56;;;;;;;17.27;13.27;;;6.40;99.90;;;;;;8298447;28;20241;-66
2021/12/14 07:54:14;;;;;;;23.00;15.07;;;6.40;99.90;;;;;;8296527;28;20269;-66
2021/12/14 07:58:15;;;;;;;23.10;13.80;;;6.40;99.90;;;;;;8302315;28;20182;-65
2021/12/14 08:02:40;;;;;;;17.50;11.77;;;6.40;99.90;;;;;;8298566;28;20282;-67
2021/12/14 08:06:54;;;;;;;15.17;9.80;;;6.40;99.90;;;;;;8287445;28;20213;-65
2021/12/14 08:15:32;;;;;;;16.70;11.50;;;6.50;99.90;;;;;;8314133;28;20189;-66
2021/12/14 08:19:38;;;;;;;17.80;11.07;;;6.50;99.90;;;;;;8309205;28;20195;-66
2021/12/14 08:23:42;;;;;;;16.90;11.13;;;6.50;99.90;;;;;;8318808;28;20244;-65
2021/12/14 08:27:43;;;;;;;14.93;10.90;;;6.50;99.90;;;;;;8305243;28;20194;-65
2021/12/14 08:31:54;;;;;;;15.23;10.67;;;6.60;99.90;;;;;;8308374;28;20214;-70
2021/12/14 08:36:00;;;;;;;15.83;10.60;;;6.60;99.90;;;;;;8318962;28;20186;-66
2021/12/14 08:40:10;;;;;;;14.77;9.37;;;6.70;99.90;;;;;;8330292;28;20335;-66
2021/12/14 08:44:12;;;;;;;14.13;9.50;;;6.70;99.90;;;;;;8302404;28;20206;-66
2021/12/14 08:48:23;;;;;;;14.73;9.70;;;6.70;99.90;;;;;;8305910;28;20193;-66
2021/12/14 08:52:26;;;;;;;13.83;10.13;;;6.70;99.90;;;;;;8314307;28;20195;-68
2021/12/14 08:56:31;;;;;;;17.90;10.77;;;6.70;99.90;;;;;;8310555;28;20194;-65
2021/12/14 09:00:40;;;;;;;15.37;11.37;;;6.70;99.90;;;;;;8323952;28;20254;-66
2021/12/14 09:04:49;;;;;;;14.63;9.97;;;6.70;99.90;;;;;;8320132;28;20194;-66
2021/12/14 09:08:51;;;;;;;15.93;10.50;;;6.80;99.90;;;;;;8316888;28;20218;-67
2021/12/14 09:12:56;;;;;;;15.10;8.80;;;6.80;99.90;;;;;;8321307;28;20269;-66
2021/12/14 09:16:58;;;;;;;12.93;9.33;;;6.80;99.90;;;;;;8319979;28;20210;-66
2021/12/14 09:21:07;;;;;;;15.33;9.17;;;6.80;99.90;;;;;;8318892;28;20182;-67
2021/12/14 09:25:12;;;;;;;16.40;9.40;;;6.80;99.90;;;;;;8303000;28;20311;-67
2021/12/14 09:29:17;;;;;;;14.80;9.63;;;6.80;99.90;;;;;;8326012;28;20211;-66
2021/12/14 09:33:18;;;;;;;13.90;9.67;;;6.80;99.90;;;;;;8312945;28;20214;-65
2021/12/14 09:37:20;;;;;;;13.77;10.07;;;6.70;99.90;;;;;;8326072;28;20237;-65
2021/12/14 09:41:27;;;;;;;12.83;8.30;;;6.70;99.90;;;;;;8300187;28;20274;-66
2021/12/14 09:45:35;;;;;;;12.47;8.30;;;6.70;99.90;;;;;;8303033;28;20276;-66
2021/12/14 09:49:38;;;;;;;11.97;7.40;;;6.80;99.90;;;;;;8302054;28;20214;-66
2021/12/14 09:53:44;;;;;;;9.90;6.13;;;6.80;99.90;;;;;;8320744;28;20194;-66
2021/12/14 09:57:57;;;;;;;10.90;6.60;;;6.80;99.90;;;;;;8320821;28;20186;-66
2021/12/14 10:02:03;;;;;;;8.80;5.80;;;6.90;99.90;;;;;;8328172;28;20280;-66
2021/12/14 10:06:09;;;;;;;11.37;6.03;;;6.90;99.90;;;;;;8322345;28;20190;-66
2021/12/14 10:10:13;;;;;;;14.47;8.63;;;7.00;99.90;;;;;;8307268;28;20222;-67
2021/12/14 10:14:19;;;;;;;9.43;7.30;;;7.10;99.90;;;;;;8296480;28;20205;-65
2021/12/14 10:18:25;;;;;;;10.77;6.80;;;7.20;99.90;;;;;;8303958;28;20187;-64
2021/12/14 10:22:31;;;;;;;9.03;6.47;;;7.20;99.90;;;;;;8321250;28;20275;-66
2021/12/14 10:26:34;;;;;;;10.13;6.50;;;7.10;99.90;;;;;;8301234;28;20197;-65
2021/12/14 10:30:40;;;;;;;7.20;5.03;;;7.20;99.90;;;;;;8321271;28;20213;-66
2021/12/14 10:34:46;;;;;;;7.63;5.57;;;7.20;99.90;;;;;;8304248;28;20183;-65
2021/12/14 10:43:17;;;;;;;10.30;5.57;;;7.40;99.90;;;;;;8320661;28;20261;-65
2021/12/14 10:47:20;;;;;;;9.13;5.50;;;7.40;99.90;;;;;;8322776;28;20302;-64
2021/12/14 10:51:27;;;;;;;8.57;4.80;;;7.40;99.90;;;;;;8311777;28;20219;-65
2021/12/14 10:55:35;;;;;;;7.10;4.53;;;7.40;99.90;;;;;;8318770;28;20183;-66
2021/12/14 10:59:39;;;;;;;6.53;5.07;;;7.50;99.90;;;;;;8318955;28;20189;-66
2021/12/14 11:03:45;;;;;;;8.13;5.10;;;7.60;99.90;;;;;;8297778;28;20201;-65
2021/12/14 11:07:48;;;;;;;11.23;6.37;;;7.70;99.90;;;;;;8302806;28;20196;-65
2021/12/14 11:11:56;;;;;;;8.83;6.87;;;7.80;99.90;;;;;;8319180;28;20357;-66
2021/12/14 11:15:59;;;;;;;7.93;6.17;;;7.90;99.90;;;;;;8312146;28;20198;-65
2021/12/14 11:20:22;;;;;;;9.07;6.43;;;8.00;99.90;;;;;;8299055;28;20186;-65
2021/12/14 11:24:36;;;;;;;11.97;6.87;;;8.10;99.90;;;;;;8303941;28;20305;-65
2021/12/14 11:28:47;;;;;;;7.77;5.83;;;8.10;99.90;;;;;;8302688;28;20210;-66
2021/12/14 11:33:04;;;;;;;10.13;6.97;;;8.10;99.90;;;;;;8307539;28;20182;-66
2021/12/14 11:37:14;;;;;;;9.77;6.80;;;8.00;99.90;;;;;;8303486;28;20222;-67
2021/12/14 11:41:33;;;;;;;9.90;7.13;;;8.00;99.90;;;;;;8299699;28;20191;-66
2021/12/14 11:45:37;;;;;;;9.97;8.33;;;8.00;99.90;;;;;;8299052;28;20701;-66
2021/12/14 11:49:52;;;;;;;12.43;9.63;;;7.90;99.90;;;;;;8323395;28;20299;-67
2021/12/14 11:53:55;;;;;;;10.33;8.20;;;7.90;99.90;;;;;;8308617;28;20187;-70
2021/12/14 11:58:26;;;;;;;12.87;9.47;;;8.00;99.90;;;;;;8329482;28;20217;-65
2021/12/14 12:02:27;;;;;;;13.23;8.47;;;8.00;99.90;;;;;;8321887;28;20186;-65
2021/12/14 12:09:28;;;;;;;13.30;9.73;;;8.00;99.90;;;;;;8317899;28;20272;-66
2021/12/14 12:11:07;;;;;;;12.03;8.77;;;7.90;99.90;;;;;;8330051;28;20300;-66
2021/12/14 12:15:14;;;;;;;14.30;12.00;;;7.90;99.90;;;;;;8338387;28;20195;-64
2021/12/14 12:19:22;;;;;;;16.47;14.73;;;7.90;99.90;;;;;;8324115;28;20286;-65
2021/12/14 12:23:24;;;;;;;11.97;8.60;;;7.80;99.90;;;;;;8310686;28;20232;-64
2021/12/14 12:27:34;;;;;;;12.20;7.40;;;7.70;99.90;;;;;;8337092;28;20521;-65
2021/12/14 12:31:45;;;;;;;8.73;6.37;;;7.60;99.90;;;;;;8317739;28;20308;-65
2021/12/14 12:35:49;;;;;;;9.50;6.00;;;7.60;99.90;;;;;;8314055;28;20198;-65
2021/12/14 12:39:52;;;;;;;8.80;6.13;;;7.40;99.90;;;;;;8333498;28;20412;-66
2021/12/14 12:43:59;;;;;;;9.20;6.10;;;7.30;99.90;;;;;;8317366;28;20210;-66
2021/12/14 12:48:01;;;;;;;8.67;5.30;;;7.30;99.90;;;;;;8326872;28;20256;-66
2021/12/14 12:52:20;;;;;;;7.53;5.03;;;7.20;99.90;;;;;;8321399;28;20216;-67
2021/12/14 12:56:26;;;;;;;7.43;4.73;;;7.10;99.90;;;;;;8307911;28;20186;-66
2021/12/14 13:00:51;;;;;;;4.97;4.27;;;7.00;99.90;;;;;;8331776;28;20194;-66
2021/12/14 13:04:55;;;;;;;7.33;4.83;;;6.70;99.90;;;;;;8323536;28;20193;-66
2021/12/14 13:09:00;;;;;;;5.63;3.73;;;6.60;99.90;;;;;;8308830;28;20314;-66
2021/12/14 13:13:04;;;;;;;7.00;3.67;;;6.60;99.90;;;;;;8303101;28;20187;-66
2021/12/14 13:17:05;;;;;;;6.30;4.27;;;6.70;99.90;;;;;;8320868;28;20254;-66
2021/12/14 13:21:17;;;;;;;5.73;4.80;;;6.70;99.90;;;;;;8327943;28;20190;-65
2021/12/14 13:25:36;;;;;;;6.53;5.80;;;6.80;99.90;;;;;;8316899;28;20215;-66
2021/12/14 13:29:44;;;;;;;7.90;5.03;;;6.90;99.90;;;;;;8318888;28;20214;-68
2021/12/14 13:33:45;;;;;;;5.60;4.13;;;6.90;99.90;;;;;;8301494;28;20223;-66
2021/12/14 13:37:53;;;;;;;6.13;4.50;;;6.90;99.90;;;;;;8310477;28;20187;-67
2021/12/14 13:42:00;;;;;;;6.03;3.87;;;6.90;99.90;;;;;;8327869;28;20267;-65
2021/12/14 13:46:05;;;;;;;7.60;4.67;;;6.90;99.90;;;;;;8311907;28;20190;-66
2021/12/14 13:50:10;;;;;;;8.43;5.40;;;6.90;99.90;;;;;;8303054;28;20225;-66
2021/12/14 13:54:11;;;;;;;7.60;6.63;;;6.90;99.90;;;;;;8319334;28;20179;-66
2021/12/14 13:58:16;;;;;;;11.20;8.73;;;6.90;99.90;;;;;;8312661;28;20187;-67
2021/12/14 14:02:17;;;;;;;6.40;4.90;;;6.90;99.90;;;;;;8305574;28;20245;-68
2021/12/14 14:06:21;;;;;;;5.53;4.50;;;6.80;99.90;;;;;;8336099;28;20228;-66
2021/12/14 14:10:23;;;;;;;5.03;4.23;;;6.70;99.90;;;;;;8315346;28;20218;-66
2021/12/14 14:14:31;;;;;;;6.07;4.43;;;6.60;99.90;;;;;;8302644;28;20193;-66
2021/12/14 14:18:37;;;;;;;6.43;5.13;;;6.60;99.90;;;;;;8317796;28;20183;-66
2021/12/14 14:22:38;;;;;;;13.63;8.27;;;6.60;99.90;;;;;;8327785;28;20209;-67
2021/12/14 14:26:41;;;;;;;9.83;7.13;;;6.60;99.90;;;;;;8326330;28;20197;-66
2021/12/14 14:30:46;;;;;;;7.17;5.33;;;6.50;99.90;;;;;;8302971;28;20210;-67
2021/12/14 14:34:54;;;;;;;6.93;5.50;;;6.50;99.90;;;;;;8327751;28;20300;-67
2021/12/14 14:39:14;;;;;;;6.27;4.80;;;6.40;99.90;;;;;;8328387;28;20193;-66
2021/12/14 14:43:15;;;;;;;7.00;5.60;;;6.30;99.90;;;;;;8303889;28;20191;-66
2021/12/14 14:47:37;;;;;;;9.73;6.30;;;6.20;99.90;;;;;;8303084;28;20190;-67
2021/12/14 14:52:00;;;;;;;9.20;5.67;;;6.10;99.90;;;;;;8328972;28;20212;-66
2021/12/14 14:56:01;;;;;;;12.07;7.87;;;6.10;99.90;;;;;;8316034;28;20536;-66
2021/12/14 15:00:06;;;;;;;12.87;7.60;;;6.10;99.90;;;;;;8303960;28;20227;-66
2021/12/14 15:04:07;;;;;;;9.07;5.87;;;6.00;99.90;;;;;;8297895;28;20199;-67
2021/12/14 15:08:11;;;;;;;11.37;7.17;;;6.00;99.90;;;;;;8296359;28;20190;-66
2021/12/14 15:12:19;;;;;;;9.97;6.97;;;6.10;99.90;;;;;;8297747;28;20221;-66
2021/12/14 15:16:37;;;;;;;9.33;7.07;;;6.10;99.90;;;;;;8301797;28;20182;-65
2021/12/14 15:20:38;;;;;;;10.17;7.17;;;6.20;99.90;;;;;;8313816;28;20182;-67
2021/12/14 15:24:54;;;;;;;7.70;6.03;;;6.20;99.90;;;;;;8320244;28;20216;-66
2021/12/14 15:29:29;;;;;;;11.83;7.93;;;6.20;99.90;;;;;;8317452;28;20190;-67
2021/12/14 15:33:38;;;;;;;10.23;7.27;;;6.20;99.90;;;;;;8316462;28;20178;-66
2021/12/14 15:37:50;;;;;;;12.17;7.87;;;6.20;99.90;;;;;;8307468;28;20505;-67
2021/12/14 15:41:51;;;;;;;11.37;7.90;;;6.20;99.90;;;;;;8293823;28;20189;-67
2021/12/14 15:45:59;;;;;;;10.43;8.03;;;6.10;99.90;;;;;;8304093;28;20226;-68
2021/12/14 15:50:18;;;;;;;14.07;9.30;;;6.10;99.90;;;;;;8306279;28;20215;-67
2021/12/14 15:54:37;;;;;;;13.03;9.03;;;6.10;99.90;;;;;;8309547;28;20183;-67
2021/12/14 15:58:47;;;;;;;13.57;10.40;;;6.10;99.90;;;;;;8310649;28;20317;-67
2021/12/14 16:02:48;;;;;;;15.37;11.47;;;6.10;99.90;;;;;;8307451;28;20237;-66
2021/12/14 16:06:51;;;;;;;14.20;10.37;;;6.10;99.90;;;;;;8318465;28;20178;-67
2021/12/14 16:10:58;;;;;;;37.63;20.27;;;6.10;99.90;;;;;;8317802;28;20215;-67
2021/12/14 16:15:21;;;;;;;16.50;11.87;;;6.10;99.90;;;;;;8312155;28;20182;-67
2021/12/14 16:19:28;;;;;;;15.03;11.57;;;6.10;99.90;;;;;;8325286;28;20182;-67
2021/12/14 16:23:32;;;;;;;17.97;12.13;;;6.00;99.90;;;;;;8299807;28;20203;-67
2021/12/14 16:27:35;;;;;;;16.00;12.30;;;6.00;99.90;;;;;;8305728;28;20269;-67
2021/12/14 16:31:45;;;;;;;14.50;9.90;;;6.10;99.90;;;;;;8310939;28;20252;-67
2021/12/14 16:35:52;;;;;;;15.83;11.00;;;6.10;99.90;;;;;;8320121;28;20186;-67
2021/12/14 16:39:53;;;;;;;18.00;11.50;;;6.10;99.90;;;;;;8329224;28;20281;-67
2021/12/14 16:44:00;;;;;;;18.90;11.13;;;6.00;99.90;;;;;;8318311;28;20202;-67
2021/12/14 16:48:04;;;;;;;18.67;11.80;;;5.90;99.90;;;;;;8324161;28;20191;-67
2021/12/14 16:52:16;;;;;;;16.57;10.33;;;5.90;99.90;;;;;;8308417;28;20210;-67
2021/12/14 16:56:19;;;;;;;16.60;11.03;;;5.90;99.90;;;;;;8314920;28;20186;-66
2021/12/14 17:00:33;;;;;;;15.60;11.53;;;5.90;99.90;;;;;;8333233;28;20190;-67
2021/12/14 17:04:37;;;;;;;33.67;20.67;;;5.90;99.90;;;;;;8309712;28;20194;-67
2021/12/14 17:08:41;;;;;;;16.80;13.33;;;5.90;99.90;;;;;;8336797;28;20400;-66
2021/12/14 17:12:43;;;;;;;18.80;12.33;;;5.90;99.90;;;;;;8322882;28;20614;-66
2021/12/14 17:16:45;;;;;;;15.70;10.90;;;5.90;99.90;;;;;;8311634;28;20197;-67
2021/12/14 17:20:46;;;;;;;16.53;10.90;;;5.90;99.90;;;;;;8310429;28;20197;-67
2021/12/14 17:24:53;;;;;;;17.57;10.90;;;5.80;99.90;;;;;;8322118;28;20209;-67
2021/12/14 17:28:58;;;;;;;15.83;11.00;;;5.80;99.90;;;;;;8335841;28;20190;-67
2021/12/14 17:32:59;;;;;;;16.33;11.30;;;5.80;99.90;;;;;;8317848;28;20186;-67
2021/12/14 17:37:07;;;;;;;14.53;10.83;;;5.70;99.90;;;;;;8309366;28;20189;-68
2021/12/14 17:41:09;;;;;;;15.83;10.93;;;5.70;99.90;;;;;;8331953;28;20545;-69
2021/12/14 17:45:20;;;;;;;15.70;11.80;;;5.70;99.90;;;;;;8305669;28;20203;-67
2021/12/14 17:49:22;;;;;;;15.33;11.40;;;5.70;99.90;;;;;;8308366;28;20214;-66
2021/12/14 17:53:27;;;;;;;16.00;10.90;;;5.70;99.90;;;;;;8330755;28;20186;-67
2021/12/14 17:57:31;;;;;;;15.53;10.83;;;5.70;99.90;;;;;;8297180;28;20206;-67
2021/12/14 18:01:32;;;;;;;19.73;14.50;;;5.70;99.90;;;;;;8328857;28;20185;-66
2021/12/14 18:05:52;;;;;;;24.03;17.40;;;5.70;99.90;;;;;;8330455;28;20190;-67
2021/12/14 18:09:54;;;;;;;42.57;25.17;;;5.70;99.90;;;;;;8324689;28;20225;-67
2021/12/14 18:14:02;;;;;;;39.07;25.77;;;5.70;99.90;;;;;;8294624;28;20197;-66
2021/12/14 18:22:29;;;;;;;25.43;18.57;;;5.70;99.90;;;;;;8326505;28;20263;-67
2021/12/14 18:26:36;;;;;;;20.37;12.70;;;5.70;99.90;;;;;;8316144;28;20262;-68
2021/12/14 18:30:38;;;;;;;19.20;12.13;;;5.60;99.90;;;;;;8318455;28;20247;-67
2021/12/14 18:34:42;;;;;;;18.87;12.23;;;5.60;99.90;;;;;;8304645;28;20198;-67
2021/12/14 18:38:45;;;;;;;22.03;13.00;;;5.50;99.90;;;;;;8321566;28;20201;-67
2021/12/14 18:42:48;;;;;;;19.67;12.57;;;5.40;99.90;;;;;;8320588;28;20190;-67
2021/12/14 18:47:10;;;;;;;19.77;12.03;;;5.40;99.90;;;;;;8324626;28;20196;-67
2021/12/14 18:51:13;;;;;;;20.37;12.57;;;5.30;99.90;;;;;;8306659;28;20218;-67
2021/12/14 18:55:29;;;;;;;22.13;13.70;;;5.30;99.90;;;;;;8302650;28;20218;-68
2021/12/14 18:59:33;;;;;;;18.37;12.63;;;5.30;99.90;;;;;;8321341;28;20186;-68
2021/12/14 19:03:37;;;;;;;21.60;13.23;;;5.20;99.90;;;;;;8306995;28;20193;-68
2021/12/14 19:07:43;;;;;;;19.07;13.30;;;5.20;99.90;;;;;;8304636;28;20183;-68
2021/12/14 19:11:45;;;;;;;19.73;12.47;;;5.20;99.90;;;;;;8322317;28;20214;-71
2021/12/14 19:15:47;;;;;;;19.90;13.17;;;5.20;99.90;;;;;;8319153;28;20285;-67
2021/12/14 19:19:48;;;;;;;20.57;12.43;;;5.20;99.90;;;;;;8315493;28;20194;-68
2021/12/14 19:24:05;;;;;;;19.80;11.87;;;5.30;99.90;;;;;;8302848;28;20225;-67
2021/12/14 19:28:15;;;;;;;16.40;12.17;;;5.30;99.90;;;;;;8329134;28;20243;-66
2021/12/14 19:32:24;;;;;;;18.90;12.33;;;5.30;99.90;;;;;;8281734;28;20358;-68
2021/12/14 19:36:29;;;;;;;18.73;12.47;;;5.30;99.90;;;;;;8313409;28;20195;-67
2021/12/14 19:40:44;;;;;;;18.90;12.87;;;5.20;99.90;;;;;;8293434;28;20195;-68
2021/12/14 19:44:49;;;;;;;19.23;11.73;;;5.30;99.90;;;;;;8310296;28;20488;-68
2021/12/14 19:48:57;;;;;;;20.03;12.73;;;5.30;99.90;;;;;;8309834;28;20264;-68
2021/12/14 19:53:01;;;;;;;20.20;12.87;;;5.30;99.90;;;;;;8306209;28;20239;-68
2021/12/14 19:57:08;;;;;;;19.47;12.93;;;5.30;99.90;;;;;;8300565;28;20189;-67
2021/12/14 20:01:20;;;;;;;19.70;12.90;;;5.30;99.90;;;;;;8317256;28;20186;-68
2021/12/14 20:05:28;;;;;;;21.40;13.37;;;5.30;99.90;;;;;;8306967;28;20194;-68
2021/12/14 20:09:41;;;;;;;20.27;13.60;;;5.30;99.90;;;;;;8320818;28;20221;-67
2021/12/14 20:13:51;;;;;;;19.00;12.53;;;5.40;99.90;;;;;;8315347;28;20262;-68
2021/12/14 20:17:56;;;;;;;19.00;13.30;;;5.40;99.90;;;;;;8308113;28;20197;-68
2021/12/14 20:21:57;;;;;;;21.53;13.93;;;5.40;99.90;;;;;;8299742;28;20252;-68
2021/12/14 20:26:13;;;;;;;21.87;13.77;;;5.50;99.90;;;;;;8298353;28;20384;-68
2021/12/14 20:30:15;;;;;;;21.90;14.13;;;5.50;99.90;;;;;;8301634;28;20210;-68
2021/12/14 20:34:24;;;;;;;18.93;13.20;;;5.50;99.90;;;;;;8284510;28;20194;-68
2021/12/14 20:38:26;;;;;;;21.30;13.93;;;5.50;99.90;;;;;;8312273;28;20270;-68
2021/12/14 20:46:53;;;;;;;20.93;13.37;;;5.50;99.90;;;;;;8318463;28;20202;-68
2021/12/14 20:50:59;;;;;;;20.70;13.60;;;5.50;99.90;;;;;;8317357;28;20222;-67
2021/12/14 20:55:09;;;;;;;20.47;14.00;;;5.50;99.90;;;;;;8314001;28;20364;-67
2021/12/14 20:59:15;;;;;;;21.50;13.90;;;5.50;99.90;;;;;;8297645;28;20183;-67
2021/12/14 21:03:29;;;;;;;24.27;14.30;;;5.50;99.90;;;;;;8303367;28;20328;-67
2021/12/14 21:07:31;;;;;;;20.97;13.07;;;5.50;99.90;;;;;;8314487;28;20190;-68
2021/12/14 21:11:36;;;;;;;22.87;13.30;;;5.50;99.90;;;;;;8315157;28;20214;-68
2021/12/14 21:15:38;;;;;;;20.17;13.30;;;5.50;99.90;;;;;;8309433;28;20189;-67
2021/12/14 21:19:44;;;;;;;23.27;14.33;;;5.50;99.90;;;;;;8308456;28;20195;-68
2021/12/14 21:23:45;;;;;;;21.00;13.53;;;5.60;99.90;;;;;;8322512;28;20229;-68
2021/12/14 21:27:51;;;;;;;25.23;14.67;;;5.60;99.90;;;;;;8310365;28;20185;-68
2021/12/14 21:31:54;;;;;;;22.50;13.87;;;5.60;99.90;;;;;;8314988;28;20218;-68
2021/12/14 21:36:18;;;;;;;22.40;15.00;;;5.60;99.90;;;;;;8330192;28;20187;-68
2021/12/14 21:40:38;;;;;;;24.80;14.47;;;5.60;99.90;;;;;;8311024;28;20186;-68
2021/12/14 21:45:00;;;;;;;24.73;16.03;;;5.60;99.90;;;;;;8323558;28;20232;-67
2021/12/14 21:49:01;;;;;;;26.40;15.37;;;5.60;99.90;;;;;;8321729;28;20212;-67
2021/12/14 21:53:02;;;;;;;26.63;16.00;;;5.60;99.90;;;;;;8313512;28;20175;-66
2021/12/14 21:57:05;;;;;;;27.73;15.30;;;5.60;99.90;;;;;;8330992;28;20194;-66